Aviation Digital Data Service (ADDS)

Output produced by METARs form (0756 UTC 18 January 2017)
found at http://aviationweather.gov/adds/metars/
 
KPIT 180755Z 1808/1912 26010KT P6SM OVC015 
     TEMPO 1811/1815 OVC008 
     FM190100 27010KT P6SM OVC008